Time;durP1;ratioP1;P1;durP2;ratioP2;P2;SDS_P1;SDS_P2;PMS_P1;PMS_P2;Temp;Humidity;BMP_temperature;BMP_pressure;BME280_temperature;BME280_humidity;BME280_pressure;Samples;Min_cycle;Max_cycle;Signal;HPM_P1;HPM_P2
2022/07/24 12:13:17;;;;;;;3.72;2.10;;;25.40;75.20;;;;;;5107898;27;1361926;-49
2022/07/24 12:15:43;;;;;;;6.20;2.08;;;25.30;77.10;;;;;;5130444;28;20474;-48
2022/07/24 12:18:11;;;;;;;3.53;2.00;;;25.40;76.30;;;;;;5122170;27;20040;-50
2022/07/24 12:20:38;;;;;;;7.75;1.90;;;25.40;76.50;;;;;;5110568;28;20064;-49
2022/07/24 12:23:05;;;;;;;4.25;1.90;;;25.50;76.20;;;;;;5109702;28;20044;-51
2022/07/24 12:25:32;;;;;;;2.40;1.60;;;25.60;76.70;;;;;;5110529;28;20398;-50
2022/07/24 12:27:58;;;;;;;6.32;2.13;;;25.60;75.30;;;;;;5110462;28;20083;-49
2022/07/24 12:30:25;;;;;;;4.32;1.88;;;25.70;75.00;;;;;;5110314;28;20047;-47
2022/07/24 12:32:52;;;;;;;3.88;1.77;;;25.80;75.40;;;;;;5110215;28;20109;-49
2022/07/24 12:35:19;;;;;;;3.67;1.83;;;25.90;74.40;;;;;;5109466;28;20062;-48
2022/07/24 12:37:50;;;;;;;3.95;1.77;;;26.00;75.20;;;;;;5110427;28;20070;-49
2022/07/24 12:40:17;;;;;;;2.88;1.60;;;26.10;74.90;;;;;;5109069;28;20086;-47
2022/07/24 12:42:44;;;;;;;3.92;1.58;;;26.20;74.80;;;;;;5110152;28;20047;-49
2022/07/24 12:45:10;;;;;;;4.78;1.70;;;26.30;74.50;;;;;;5109347;28;20672;-47
2022/07/24 12:47:38;;;;;;;3.35;1.90;;;26.30;74.50;;;;;;5109967;28;20040;-51
2022/07/24 12:50:04;;;;;;;3.35;1.70;;;26.40;74.10;;;;;;5109795;28;20495;-51
2022/07/24 12:52:31;;;;;;;4.10;1.65;;;26.40;73.40;;;;;;5109424;28;20051;-48
2022/07/24 12:54:58;;;;;;;4.82;2.00;;;26.50;73.40;;;;;;5109780;28;20089;-49
2022/07/24 12:57:25;;;;;;;3.80;1.65;;;26.40;73.40;;;;;;5109093;28;20483;-51
2022/07/24 12:59:55;;;;;;;4.80;1.67;;;26.40;74.20;;;;;;5109839;28;20050;-48
2022/07/24 13:02:23;;;;;;;2.25;1.45;;;26.40;72.80;;;;;;5108978;28;20478;-49
2022/07/24 13:04:49;;;;;;;3.72;1.60;;;26.40;72.60;;;;;;5109706;28;20132;-48
2022/07/24 13:07:16;;;;;;;4.32;2.10;;;26.40;73.00;;;;;;5108998;28;20067;-50
2022/07/24 13:09:43;;;;;;;3.70;1.63;;;26.50;73.40;;;;;;5109481;28;20039;-48
2022/07/24 13:12:10;;;;;;;5.40;1.60;;;26.60;73.00;;;;;;5107070;28;20086;-49
2022/07/24 13:14:37;;;;;;;6.22;1.70;;;26.50;72.40;;;;;;5090105;28;20093;-47
2022/07/24 13:17:04;;;;;;;2.58;1.60;;;26.40;73.10;;;;;;5096789;28;20440;-48
2022/07/24 13:19:30;;;;;;;4.82;1.63;;;26.40;73.10;;;;;;5109312;28;20551;-51
2022/07/24 13:21:57;;;;;;;5.70;1.42;;;26.50;72.40;;;;;;5108774;28;20062;-48
2022/07/24 13:24:24;;;;;;;4.60;1.50;;;26.50;72.40;;;;;;5097132;28;20052;-50
2022/07/24 13:26:51;;;;;;;3.63;1.48;;;26.60;73.00;;;;;;5095002;28;20116;-50
2022/07/24 13:29:21;;;;;;;2.67;1.40;;;26.70;72.90;;;;;;5095464;28;20047;-50
2022/07/24 13:31:47;;;;;;;2.33;1.30;;;26.80;73.30;;;;;;5094980;28;20032;-50
2022/07/24 13:34:14;;;;;;;4.63;1.42;;;27.00;73.00;;;;;;5095871;28;20399;-48
2022/07/24 13:36:41;;;;;;;2.50;1.40;;;27.20;73.30;;;;;;5080228;28;20041;-49
2022/07/24 13:39:12;;;;;;;2.33;1.10;;;27.20;72.00;;;;;;5095349;28;20131;-51
2022/07/24 13:41:39;;;;;;;3.42;1.27;;;27.20;71.80;;;;;;5095376;28;20090;-49
2022/07/24 13:44:06;;;;;;;4.20;1.40;;;27.20;71.80;;;;;;5080174;28;20041;-50
2022/07/24 13:46:34;;;;;;;2.78;1.20;;;27.10;72.20;;;;;;5095425;28;20040;-50
2022/07/24 13:49:00;;;;;;;4.05;1.30;;;27.00;72.50;;;;;;5080129;28;20221;-48
2022/07/24 13:51:27;;;;;;;3.95;1.67;;;27.10;72.40;;;;;;5095216;28;20044;-50
2022/07/24 13:53:54;;;;;;;5.05;1.48;;;27.10;71.50;;;;;;5094450;28;20097;-47
2022/07/24 13:56:21;;;;;;;3.60;1.40;;;27.10;71.20;;;;;;5095261;28;20040;-50
2022/07/24 13:58:48;;;;;;;3.25;1.38;;;27.10;71.50;;;;;;5088248;28;20066;-47
2022/07/24 14:01:17;;;;;;;2.88;1.40;;;27.00;70.20;;;;;;5075764;28;20048;-50
2022/07/24 14:03:44;;;;;;;2.38;1.38;;;27.00;70.30;;;;;;5088962;28;20051;-49
2022/07/24 14:06:32;;;;;;;2.35;1.35;;;26.90;70.30;;;;;;5075622;28;20118;-51
2022/07/24 14:08:58;;;;;;;3.85;1.23;;;26.80;69.60;;;;;;5091948;28;20047;-50
2022/07/24 14:11:25;;;;;;;5.47;1.40;;;26.80;69.70;;;;;;5094792;28;20040;-49
2022/07/24 14:13:52;;;;;;;3.35;1.45;;;26.70;69.40;;;;;;5094043;28;20037;-50
2022/07/24 14:16:20;;;;;;;3.45;1.13;;;26.70;69.00;;;;;;5094928;28;20040;-46
2022/07/24 14:18:47;;;;;;;3.58;1.40;;;26.60;69.00;;;;;;5086149;28;20098;-47
2022/07/24 14:21:15;;;;;;;1.88;1.15;;;26.60;68.80;;;;;;5094651;28;20115;-47
2022/07/24 14:23:42;;;;;;;4.22;1.33;;;26.70;68.40;;;;;;5093741;28;20063;-50
2022/07/24 14:26:08;;;;;;;2.22;1.20;;;26.60;68.10;;;;;;5094910;28;20044;-52
2022/07/24 14:28:35;;;;;;;2.97;1.20;;;26.60;67.80;;;;;;5092208;28;20032;-51
2022/07/24 14:31:02;;;;;;;4.93;1.30;;;26.40;68.80;;;;;;5091418;28;20041;-49
2022/07/24 14:33:29;;;;;;;3.92;1.25;;;26.40;68.30;;;;;;5093171;28;20044;-48
2022/07/24 14:35:55;;;;;;;2.30;1.05;;;26.40;68.90;;;;;;5093433;28;20047;-54
2022/07/24 14:38:22;;;;;;;3.25;1.33;;;26.50;68.80;;;;;;5085296;28;20470;-48
2022/07/24 14:40:49;;;;;;;3.60;1.05;;;26.50;68.20;;;;;;5074854;28;20487;-47
2022/07/24 14:43:15;;;;;;;2.00;1.10;;;26.50;68.20;;;;;;5074813;28;20061;-44
2022/07/24 14:45:42;;;;;;;3.67;1.20;;;26.50;68.80;;;;;;5074851;28;20036;-50
2022/07/24 14:48:09;;;;;;;4.13;1.27;;;26.60;68.80;;;;;;5074648;28;20045;-52
2022/07/24 14:50:36;;;;;;;4.72;1.40;;;26.60;67.90;;;;;;5074846;28;20445;-52
2022/07/24 14:53:02;;;;;;;4.20;1.50;;;26.70;67.50;;;;;;5074679;28;20048;-45
2022/07/24 14:55:29;;;;;;;2.92;1.20;;;26.70;67.80;;;;;;5092908;28;20044;-46
2022/07/24 14:57:57;;;;;;;3.58;1.80;;;26.80;68.00;;;;;;5092736;28;20098;-48
2022/07/24 15:00:24;;;;;;;4.05;1.85;;;26.80;67.90;;;;;;5094074;28;20043;-48
2022/07/24 15:02:51;;;;;;;2.58;1.40;;;26.80;67.90;;;;;;5092654;28;20395;-47
2022/07/24 15:05:18;;;;;;;2.83;1.10;;;26.80;67.40;;;;;;5093796;28;20066;-46
2022/07/24 15:07:44;;;;;;;4.93;1.90;;;27.00;68.50;;;;;;5093809;28;20036;-44
2022/07/24 15:10:11;;;;;;;2.72;1.70;;;27.10;67.90;;;;;;5093915;28;20495;-51
2022/07/24 15:12:38;;;;;;;4.07;1.40;;;27.20;68.00;;;;;;5093642;28;20491;-50
2022/07/24 15:15:04;;;;;;;3.17;1.20;;;27.30;67.60;;;;;;5092014;28;20040;-53
2022/07/24 15:17:31;;;;;;;3.35;1.50;;;27.30;67.60;;;;;;5087234;28;20052;-46
2022/07/24 15:19:58;;;;;;;3.65;1.45;;;27.30;67.70;;;;;;5087620;28;20093;-49
2022/07/24 15:22:25;;;;;;;2.25;1.10;;;27.30;67.30;;;;;;5091758;28;20048;-51
2022/07/24 15:24:51;;;;;;;1.98;1.30;;;27.30;66.80;;;;;;5087062;28;20512;-46
2022/07/24 15:27:18;;;;;;;1.77;1.00;;;27.30;67.80;;;;;;5093524;28;20097;-51
2022/07/24 15:29:45;;;;;;;4.07;1.10;;;27.20;66.90;;;;;;5093300;28;20097;-50
2022/07/24 15:32:12;;;;;;;1.73;1.02;;;27.30;68.00;;;;;;5093445;28;20056;-52
2022/07/24 15:34:38;;;;;;;2.22;1.20;;;27.20;67.40;;;;;;5080546;28;20067;-46
2022/07/24 15:37:05;;;;;;;2.20;1.00;;;27.30;68.30;;;;;;5080552;28;20118;-50
2022/07/24 15:39:32;;;;;;;3.00;1.00;;;27.30;68.30;;;;;;5084014;28;20560;-55
2022/07/24 15:41:59;;;;;;;2.00;1.10;;;27.40;67.60;;;;;;5087587;28;20046;-51
2022/07/24 15:44:25;;;;;;;4.85;1.20;;;27.40;66.80;;;;;;5084213;28;20127;-51
2022/07/24 15:46:52;;;;;;;1.88;1.13;;;27.50;66.50;;;;;;5079939;28;20036;-52
2022/07/24 15:49:19;;;;;;;2.92;1.30;;;27.60;66.90;;;;;;5075803;28;20040;-49
2022/07/24 15:51:46;;;;;;;3.47;1.40;;;27.60;66.50;;;;;;5090004;28;20040;-49
2022/07/24 15:54:12;;;;;;;2.22;1.13;;;27.70;65.90;;;;;;5089632;28;20044;-51
2022/07/24 15:56:39;;;;;;;3.22;1.40;;;27.90;66.50;;;;;;5079804;28;20048;-49
2022/07/24 15:59:06;;;;;;;3.03;1.48;;;28.30;66.90;;;;;;5073614;28;20045;-52
2022/07/24 16:01:33;;;;;;;6.22;1.98;;;28.90;65.40;;;;;;5074704;28;20055;-49
2022/07/24 16:04:19;;;;;;;4.38;1.52;;;29.20;64.70;;;;;;5084654;28;20093;-51
2022/07/24 16:06:46;;;;;;;3.40;1.27;;;29.80;63.70;;;;;;5077772;28;20068;-54
2022/07/24 16:09:12;;;;;;;3.45;1.15;;;30.30;63.70;;;;;;5088954;28;20056;-45
2022/07/24 16:11:39;;;;;;;2.70;1.33;;;30.60;63.00;;;;;;5084918;28;20487;-52
2022/07/24 16:14:06;;;;;;;2.33;1.10;;;30.40;62.10;;;;;;5075392;28;20434;-50
2022/07/24 16:16:33;;;;;;;3.85;1.10;;;30.30;61.80;;;;;;5079118;28;20112;-49
2022/07/24 16:19:00;;;;;;;2.85;1.00;;;29.90;60.80;;;;;;5088443;28;20032;-51
2022/07/24 16:21:27;;;;;;;2.00;0.90;;;29.60;61.30;;;;;;5087565;28;20078;-53
2022/07/24 16:23:54;;;;;;;3.40;1.17;;;29.40;62.90;;;;;;5085365;28;20036;-49
2022/07/24 16:26:20;;;;;;;1.65;0.90;;;29.40;62.40;;;;;;5080090;28;20042;-47
2022/07/24 16:28:47;;;;;;;3.55;1.10;;;29.90;62.50;;;;;;5085444;28;20119;-50
2022/07/24 16:31:14;;;;;;;3.35;1.00;;;30.50;60.40;;;;;;5092626;28;20064;-52
2022/07/24 16:33:41;;;;;;;1.95;0.90;;;30.80;60.40;;;;;;5082671;28;20123;-51
2022/07/24 16:36:09;;;;;;;5.10;0.70;;;30.90;60.00;;;;;;5092825;28;20480;-50
2022/07/24 16:38:35;;;;;;;3.00;0.75;;;30.60;59.30;;;;;;5088598;28;20398;-51
2022/07/24 16:41:02;;;;;;;2.33;1.00;;;30.50;60.80;;;;;;5072728;28;20464;-49
2022/07/24 16:43:37;;;;;;;2.63;1.50;;;30.60;58.50;;;;;;5087360;28;20047;-46
2022/07/24 16:46:04;;;;;;;2.22;1.00;;;30.80;58.20;;;;;;5087857;28;20036;-54
2022/07/24 16:48:31;;;;;;;3.10;0.90;;;31.00;58.80;;;;;;5089709;28;20040;-48
2022/07/24 16:50:58;;;;;;;2.22;0.90;;;31.20;57.70;;;;;;5073129;28;20037;-49
2022/07/24 16:53:24;;;;;;;1.83;0.80;;;30.80;57.80;;;;;;5084778;28;20043;-46
2022/07/24 16:55:53;;;;;;;2.80;0.85;;;30.30;57.80;;;;;;5093235;28;20032;-51
2022/07/24 16:58:20;;;;;;;3.70;0.85;;;29.80;58.50;;;;;;5081050;28;20047;-52
2022/07/24 17:00:47;;;;;;;1.85;0.75;;;29.50;58.70;;;;;;5095744;28;20040;-49
2022/07/24 17:03:14;;;;;;;1.70;0.68;;;29.20;60.00;;;;;;5093565;28;20395;-49
2022/07/24 17:05:41;;;;;;;1.75;0.90;;;28.90;59.80;;;;;;5088062;28;20036;-49
2022/07/24 17:08:07;;;;;;;3.75;1.00;;;28.70;60.10;;;;;;5083902;28;20036;-49
2022/07/24 17:10:34;;;;;;;2.97;0.77;;;28.60;60.40;;;;;;5095211;28;20047;-49
2022/07/24 17:13:10;;;;;;;2.08;0.77;;;28.50;60.50;;;;;;5086191;28;20139;-52
2022/07/24 17:15:37;;;;;;;2.58;0.80;;;28.30;60.70;;;;;;5092231;28;20040;-48
2022/07/24 17:18:05;;;;;;;3.90;1.10;;;28.10;59.60;;;;;;5082049;28;20536;-49
2022/07/24 17:20:31;;;;;;;1.70;0.80;;;27.90;59.70;;;;;;5086494;28;20490;-47
2022/07/24 17:22:58;;;;;;;2.15;0.90;;;27.70;60.20;;;;;;5077104;28;20044;-48
2022/07/24 17:25:25;;;;;;;3.45;0.95;;;27.60;60.10;;;;;;5089695;28;20111;-51
2022/07/24 17:27:53;;;;;;;2.88;0.93;;;27.50;60.80;;;;;;5093923;28;20075;-48
2022/07/24 17:30:20;;;;;;;2.22;1.10;;;27.40;61.50;;;;;;5091997;28;20071;-50
2022/07/24 17:32:47;;;;;;;3.95;0.80;;;27.30;61.40;;;;;;5076695;28;20388;-50
2022/07/24 17:35:14;;;;;;;3.33;0.90;;;27.20;62.10;;;;;;5087939;28;20123;-48
2022/07/24 17:37:41;;;;;;;2.63;1.00;;;27.10;61.30;;;;;;5091182;28;20486;-49
2022/07/24 17:40:07;;;;;;;3.13;1.00;;;27.00;61.80;;;;;;5094682;28;20068;-48
2022/07/24 17:42:34;;;;;;;3.17;1.10;;;26.90;62.60;;;;;;5093727;28;20127;-53
2022/07/24 17:45:01;;;;;;;2.00;1.08;;;26.80;62.70;;;;;;5090086;28;20032;-53
2022/07/24 17:47:28;;;;;;;2.35;1.10;;;26.70;62.20;;;;;;5091119;28;20036;-50
2022/07/24 17:49:54;;;;;;;4.43;1.10;;;26.60;62.90;;;;;;5090683;28;20079;-48
2022/07/24 17:52:21;;;;;;;2.63;0.90;;;26.50;62.80;;;;;;5086528;28;20040;-47
2022/07/24 17:54:48;;;;;;;1.98;1.05;;;26.40;63.40;;;;;;5092506;28;20036;-53
2022/07/24 17:57:15;;;;;;;4.40;1.02;;;26.30;63.50;;;;;;5086877;28;20102;-47
2022/07/24 17:59:41;;;;;;;1.90;0.95;;;26.30;64.40;;;;;;5093565;28;20067;-46
2022/07/24 18:02:08;;;;;;;3.10;0.93;;;26.20;64.10;;;;;;5086595;28;20040;-46
2022/07/24 18:04:35;;;;;;;2.17;1.20;;;26.20;64.60;;;;;;5087091;28;20040;-47
2022/07/24 18:07:02;;;;;;;2.58;1.30;;;26.10;64.60;;;;;;5079438;28;20041;-51
2022/07/24 18:09:29;;;;;;;3.25;1.02;;;26.00;64.60;;;;;;5089921;28;20040;-53
2022/07/24 18:11:55;;;;;;;3.60;1.05;;;25.90;64.90;;;;;;5081604;28;20044;-54
2022/07/24 18:14:22;;;;;;;3.58;1.10;;;25.90;64.90;;;;;;5087000;28;20415;-48
2022/07/24 18:16:49;;;;;;;3.35;0.98;;;25.90;65.10;;;;;;5089375;28;20546;-48
2022/07/24 18:19:16;;;;;;;1.80;1.00;;;25.90;65.20;;;;;;5086291;28;20432;-49
2022/07/24 18:21:45;;;;;;;2.53;1.10;;;25.80;66.10;;;;;;5083011;28;20036;-51
2022/07/24 18:24:12;;;;;;;2.50;1.17;;;25.70;65.30;;;;;;5088288;28;20069;-51
2022/07/24 18:26:39;;;;;;;1.80;0.90;;;25.70;66.50;;;;;;5088858;28;20130;-53
2022/07/24 18:29:06;;;;;;;3.00;0.98;;;25.70;66.00;;;;;;5088895;28;20105;-52
2022/07/24 18:31:33;;;;;;;1.75;0.75;;;25.60;65.90;;;;;;5089336;28;20063;-51
2022/07/24 18:34:00;;;;;;;3.75;0.93;;;25.60;66.10;;;;;;5091676;28;20064;-50
2022/07/24 18:36:28;;;;;;;2.72;0.90;;;25.60;66.20;;;;;;5077144;28;20102;-52
2022/07/24 18:38:55;;;;;;;1.70;1.00;;;25.50;65.90;;;;;;5085843;28;20086;-52
2022/07/24 18:41:22;;;;;;;2.53;1.00;;;25.50;66.10;;;;;;5085928;28;20543;-50
2022/07/24 18:43:48;;;;;;;4.00;1.23;;;25.40;66.10;;;;;;5088324;28;20386;-49
2022/07/24 18:46:15;;;;;;;3.17;1.27;;;25.40;66.40;;;;;;5080185;28;20044;-46
2022/07/24 18:48:42;;;;;;;3.92;1.50;;;25.40;66.60;;;;;;5078409;28;20037;-48
2022/07/24 18:51:09;;;;;;;3.08;1.20;;;25.40;66.80;;;;;;5091166;28;20059;-48
2022/07/24 18:53:55;;;;;;;3.80;1.17;;;25.40;66.80;;;;;;5085138;28;20036;-47
2022/07/24 18:56:22;;;;;;;2.92;1.15;;;25.30;67.10;;;;;;5084073;28;20059;-54
2022/07/24 18:58:49;;;;;;;4.22;1.30;;;25.20;67.50;;;;;;5087385;28;20036;-52
2022/07/24 19:01:16;;;;;;;2.55;1.15;;;25.20;69.20;;;;;;5087159;28;20050;-48
2022/07/24 19:03:47;;;;;;;2.45;1.20;;;25.20;70.10;;;;;;5086057;28;20032;-47
2022/07/24 19:06:13;;;;;;;3.67;1.10;;;25.10;69.90;;;;;;5088700;28;20468;-54
2022/07/24 19:08:40;;;;;;;3.63;1.20;;;25.00;70.30;;;;;;5086437;28;20487;-50
2022/07/24 19:11:07;;;;;;;3.08;1.20;;;24.90;70.60;;;;;;5079279;28;20058;-50
2022/07/24 19:13:34;;;;;;;5.53;1.50;;;24.90;71.50;;;;;;5085135;28;20067;-53
2022/07/24 19:16:01;;;;;;;5.20;1.20;;;24.80;71.40;;;;;;5081120;28;20461;-47
2022/07/24 19:18:27;;;;;;;5.70;1.17;;;24.70;71.70;;;;;;5085226;28;20043;-52
2022/07/24 19:20:54;;;;;;;2.97;1.38;;;24.70;71.60;;;;;;5091350;28;20048;-53
2022/07/24 19:23:21;;;;;;;3.13;1.20;;;24.60;71.70;;;;;;5089308;28;20046;-50
2022/07/24 19:25:48;;;;;;;3.88;1.40;;;24.60;71.80;;;;;;5090363;28;20115;-51
2022/07/24 19:28:15;;;;;;;3.05;1.10;;;24.60;72.00;;;;;;5089713;28;20039;-55
2022/07/24 19:30:42;;;;;;;4.03;1.25;;;24.60;72.80;;;;;;5087744;28;20047;-52
2022/07/24 19:33:08;;;;;;;3.13;1.00;;;24.50;72.40;;;;;;5078332;28;20049;-50
2022/07/24 19:35:35;;;;;;;2.50;1.05;;;24.40;72.70;;;;;;5087433;28;20105;-49
2022/07/24 19:38:02;;;;;;;2.63;1.10;;;24.40;73.10;;;;;;5081337;28;20498;-51
2022/07/24 19:40:28;;;;;;;2.25;1.25;;;24.40;73.20;;;;;;5090571;28;20063;-50
2022/07/24 19:42:56;;;;;;;2.35;1.20;;;24.30;73.50;;;;;;5092321;28;20486;-49
2022/07/24 19:45:22;;;;;;;5.43;1.30;;;24.20;74.00;;;;;;5092713;28;20115;-53
2022/07/24 19:47:49;;;;;;;3.05;1.38;;;24.10;76.50;;;;;;5072671;28;20041;-48
2022/07/24 19:50:16;;;;;;;4.03;1.33;;;24.00;76.90;;;;;;5090927;28;20048;-53
2022/07/24 19:53:02;;;;;;;3.63;1.23;;;23.90;77.10;;;;;;5093268;28;20367;-49
2022/07/24 19:55:29;;;;;;;5.68;1.00;;;23.70;76.70;;;;;;5091489;28;20044;-50
2022/07/24 19:57:55;;;;;;;2.95;1.20;;;23.70;76.50;;;;;;5074081;28;20051;-59
2022/07/24 20:00:22;;;;;;;3.22;1.15;;;23.70;76.30;;;;;;5074498;28;20086;-47
2022/07/24 20:02:49;;;;;;;4.18;1.10;;;23.60;76.10;;;;;;5080019;28;20403;-52
2022/07/24 20:05:16;;;;;;;3.25;1.15;;;23.60;76.20;;;;;;5073596;28;20032;-50
2022/07/24 20:07:42;;;;;;;3.30;1.20;;;23.60;76.20;;;;;;5086437;28;20123;-48
2022/07/24 20:10:09;;;;;;;2.70;1.38;;;23.60;75.80;;;;;;5093166;28;20044;-51
2022/07/24 20:12:38;;;;;;;2.75;1.20;;;23.60;75.90;;;;;;5091763;28;20051;-49
2022/07/24 20:15:05;;;;;;;3.78;1.08;;;23.50;75.40;;;;;;5073473;28;20384;-50
2022/07/24 20:17:32;;;;;;;2.50;1.00;;;23.50;75.00;;;;;;5080094;28;20046;-49
2022/07/24 20:19:59;;;;;;;1.95;1.08;;;23.50;74.40;;;;;;5091336;28;20093;-46
2022/07/24 20:22:25;;;;;;;2.40;1.25;;;23.50;73.50;;;;;;5074530;28;20068;-48
2022/07/24 20:24:53;;;;;;;2.67;1.52;;;23.40;73.60;;;;;;5078071;28;20518;-48
2022/07/24 20:27:19;;;;;;;5.70;1.10;;;23.40;73.70;;;;;;5082686;28;20047;-42
2022/07/24 20:29:46;;;;;;;3.08;1.23;;;23.40;73.90;;;;;;5086818;28;20043;-49
2022/07/24 20:32:13;;;;;;;2.33;1.10;;;23.30;74.00;;;;;;5100683;28;20044;-51
2022/07/24 20:34:40;;;;;;;3.80;1.42;;;23.30;74.30;;;;;;5084029;28;20048;-48
2022/07/24 20:37:07;;;;;;;3.53;1.30;;;23.30;74.00;;;;;;5079739;28;21471;-50
2022/07/24 20:39:34;;;;;;;4.90;1.17;;;23.30;74.40;;;;;;5096677;28;20047;-47
2022/07/24 20:42:02;;;;;;;2.20;0.95;;;23.30;74.20;;;;;;5095734;28;20047;-52
2022/07/24 20:44:28;;;;;;;2.95;1.20;;;23.30;74.60;;;;;;5096410;28;20079;-50
2022/07/24 20:46:55;;;;;;;3.55;1.10;;;23.30;74.30;;;;;;5096012;28;20070;-52
2022/07/24 20:49:22;;;;;;;3.30;1.10;;;23.20;74.40;;;;;;5094453;28;20429;-48
2022/07/24 20:51:49;;;;;;;3.60;1.45;;;23.20;74.50;;;;;;5096380;28;20082;-53
2022/07/24 20:54:15;;;;;;;2.20;1.13;;;23.20;74.50;;;;;;5095427;28;20048;-53
2022/07/24 20:56:42;;;;;;;4.85;1.40;;;23.20;74.60;;;;;;5085715;28;20040;-50
2022/07/24 20:59:09;;;;;;;2.88;1.50;;;23.10;74.80;;;;;;5089427;28;20052;-52
2022/07/24 21:01:36;;;;;;;3.88;1.58;;;23.10;75.20;;;;;;5096230;28;20051;-52
2022/07/24 21:04:03;;;;;;;5.68;1.30;;;23.20;75.20;;;;;;5095529;28;20032;-52
2022/07/24 21:06:30;;;;;;;3.30;1.20;;;23.10;75.60;;;;;;5096215;28;20044;-52
2022/07/24 21:08:56;;;;;;;2.90;1.20;;;23.00;76.00;;;;;;5096132;28;20040;-54
2022/07/24 21:11:23;;;;;;;4.95;1.35;;;23.00;76.40;;;;;;5079324;28;20050;-49
2022/07/24 21:13:50;;;;;;;3.28;1.70;;;23.00;76.60;;;;;;5076545;28;20052;-49
2022/07/24 21:16:17;;;;;;;3.05;1.50;;;22.90;76.90;;;;;;5091359;28;20052;-49
2022/07/24 21:18:44;;;;;;;3.13;1.30;;;22.90;77.00;;;;;;5096199;28;20040;-52
2022/07/24 21:21:10;;;;;;;2.80;1.30;;;22.80;77.20;;;;;;5091407;28;20036;-51
2022/07/24 21:23:37;;;;;;;5.05;1.50;;;22.80;77.40;;;;;;5095850;28;20090;-50
2022/07/24 21:26:04;;;;;;;5.25;1.70;;;22.80;78.20;;;;;;5095898;28;20447;-48
2022/07/24 21:28:31;;;;;;;5.68;1.30;;;22.70;79.20;;;;;;5095266;28;20498;-44
2022/07/24 21:30:58;;;;;;;6.50;1.98;;;22.70;79.80;;;;;;5096051;28;20382;-49
2022/07/24 21:33:24;;;;;;;4.03;1.33;;;22.60;80.70;;;;;;5095279;28;20066;-54
2022/07/24 21:35:51;;;;;;;5.00;1.70;;;22.60;81.10;;;;;;5095648;28;20055;-51
2022/07/24 21:38:18;;;;;;;4.63;1.60;;;22.60;81.90;;;;;;5081252;28;20052;-54
2022/07/24 21:40:45;;;;;;;5.72;1.35;;;22.60;81.80;;;;;;5086175;28;20122;-48
2022/07/24 21:43:11;;;;;;;5.55;1.67;;;22.60;82.00;;;;;;5093401;28;20082;-48
2022/07/24 21:45:38;;;;;;;6.78;1.70;;;22.50;82.40;;;;;;5083499;28;20505;-49
2022/07/24 21:48:05;;;;;;;3.92;1.50;;;22.50;82.80;;;;;;5093580;28;20048;-50
2022/07/24 21:50:32;;;;;;;3.80;1.45;;;22.50;82.80;;;;;;5091247;28;20032;-48
2022/07/24 21:52:58;;;;;;;8.23;1.60;;;22.50;83.10;;;;;;5092212;28;20032;-48
